Time;durP1;ratioP1;P1;durP2;ratioP2;P2;SDS_P1;SDS_P2;PMS_P1;PMS_P2;Temp;Humidity;BMP_temperature;BMP_pressure;BME280_temperature;BME280_humidity;BME280_pressure;Samples;Min_cycle;Max_cycle;Signal;HPM_P1;HPM_P2
2024/05/04 00:00:52;;;;;;;6.93;6.53;;;17.60;96.70;;;;;;5434144;26;20616;-83
2024/05/04 00:03:20;;;;;;;6.87;6.37;;;17.70;97.00;;;;;;5417320;26;20542;-83
2024/05/04 00:05:49;;;;;;;7.20;6.70;;;17.60;96.50;;;;;;5427902;26;20598;-83
2024/05/04 00:08:17;;;;;;;8.93;7.30;;;17.90;96.40;;;;;;5439270;26;20492;-83
2024/05/04 00:10:48;;;;;;;7.97;7.27;;;17.70;96.40;;;;;;5426290;26;20546;-83
2024/05/04 00:13:17;;;;;;;7.23;6.67;;;17.60;96.00;;;;;;5435434;26;20479;-83
2024/05/04 00:15:45;;;;;;;7.70;7.20;;;17.60;96.20;;;;;;5419421;26;20595;-83
2024/05/04 00:18:13;;;;;;;7.93;7.43;;;17.60;96.40;;;;;;5432571;26;20557;-83
2024/05/04 00:20:42;;;;;;;8.43;7.73;;;17.60;96.60;;;;;;5427771;26;21416;-83
2024/05/04 00:23:10;;;;;;;7.60;7.00;;;17.60;97.20;;;;;;5416524;26;20493;-84
2024/05/04 00:25:39;;;;;;;7.87;7.23;;;17.90;97.70;;;;;;5418248;26;20604;-84
2024/05/04 00:28:10;;;;;;;7.80;7.10;;;17.60;97.60;;;;;;5429501;26;21135;-83
2024/05/04 00:30:38;;;;;;;8.67;8.03;;;17.90;98.20;;;;;;5445182;26;20590;-83
2024/05/04 00:33:07;;;;;;;7.60;7.10;;;17.50;98.60;;;;;;5424534;26;20540;-83
2024/05/04 00:35:35;;;;;;;8.83;8.10;;;17.50;99.90;;;;;;5417923;26;20489;-84
2024/05/04 00:38:04;;;;;;;10.93;8.30;;;17.70;97.40;;;;;;5419083;26;20484;-83
2024/05/04 00:40:32;;;;;;;8.50;7.87;;;17.40;96.30;;;;;;5435478;26;20497;-83
2024/05/04 00:43:01;;;;;;;8.73;7.93;;;17.60;96.40;;;;;;5426279;26;20540;-83
2024/05/04 00:45:32;;;;;;;8.43;7.67;;;17.40;96.40;;;;;;5416333;26;20543;-83
2024/05/04 00:48:00;;;;;;;8.00;7.43;;;17.70;96.20;;;;;;5427069;26;21094;-83
2024/05/04 00:50:30;;;;;;;8.17;7.47;;;17.30;96.00;;;;;;5441331;26;20539;-83
2024/05/04 00:52:58;;;;;;;9.00;8.40;;;17.30;96.40;;;;;;5429235;26;20593;-84
2024/05/04 00:55:29;;;;;;;8.50;7.90;;;17.30;97.10;;;;;;5413918;26;20989;-82
2024/05/04 00:58:00;;;;;;;9.00;8.30;;;17.30;97.70;;;;;;5422419;26;20481;-84
2024/05/04 01:00:32;;;;;;;8.60;7.80;;;17.30;98.50;;;;;;5427622;26;20552;-83
2024/05/04 01:03:00;;;;;;;8.57;7.90;;;17.20;99.00;;;;;;5445454;26;21272;-83
2024/05/04 01:05:29;;;;;;;9.50;8.67;;;17.50;99.90;;;;;;5444235;26;20556;-82
2024/05/04 01:07:58;;;;;;;10.33;7.73;;;17.20;99.90;;;;;;5432866;26;20477;-82
2024/05/04 01:10:26;;;;;;;8.77;8.07;;;17.40;98.30;;;;;;5428204;26;20628;-83
2024/05/04 01:12:55;;;;;;;7.60;7.10;;;17.20;98.80;;;;;;5414563;26;20548;-82
2024/05/04 01:15:23;;;;;;;9.03;8.23;;;17.20;99.90;;;;;;5425010;26;20614;-83
2024/05/04 01:17:54;;;;;;;7.80;7.10;;;17.20;99.90;;;;;;5430186;26;20481;-83
2024/05/04 01:20:24;;;;;;;8.80;8.10;;;17.30;99.90;;;;;;5428726;26;20611;-83
2024/05/04 01:22:55;;;;;;;9.60;8.80;;;17.20;98.60;;;;;;5434270;26;20541;-83
2024/05/04 01:25:24;;;;;;;8.63;7.93;;;17.60;99.00;;;;;;5446078;26;20629;-84
2024/05/04 01:27:52;;;;;;;8.67;8.07;;;17.20;98.80;;;;;;5425552;26;20610;-82
2024/05/04 01:30:21;;;;;;;8.90;8.20;;;17.30;98.90;;;;;;5432467;26;20471;-81
2024/05/04 01:32:49;;;;;;;8.30;7.70;;;17.30;99.90;;;;;;5419524;26;20598;-83
2024/05/04 01:35:18;;;;;;;9.10;8.30;;;17.70;99.90;;;;;;5428509;26;20539;-85
2024/05/04 01:37:46;;;;;;;8.43;7.83;;;17.30;99.90;;;;;;5436108;26;20535;-84
2024/05/04 01:40:17;;;;;;;8.10;7.30;;;17.30;99.70;;;;;;5437596;26;20542;-85
2024/05/04 01:42:46;;;;;;;9.60;8.80;;;17.20;99.90;;;;;;5433860;26;20501;-85
2024/05/04 01:45:15;;;;;;;7.93;7.23;;;17.30;99.90;;;;;;5430621;26;20822;-85
2024/05/04 01:47:43;;;;;;;10.10;8.57;;;17.30;99.90;;;;;;5426625;26;20497;-85
2024/05/04 01:50:12;;;;;;;8.30;7.60;;;17.50;99.80;;;;;;5426633;26;20478;-85
2024/05/04 01:52:40;;;;;;;8.93;8.13;;;17.50;98.10;;;;;;5461014;26;20895;-85
2024/05/04 01:55:08;;;;;;;8.40;7.70;;;17.20;98.10;;;;;;5445505;26;20588;-85
2024/05/04 01:57:39;;;;;;;8.30;7.70;;;17.20;98.40;;;;;;5431132;26;20616;-84
2024/05/04 02:00:09;;;;;;;8.77;7.97;;;17.40;98.40;;;;;;5433765;26;20536;-85
2024/05/04 02:02:37;;;;;;;9.90;9.00;;;17.00;98.40;;;;;;5428393;26;20485;-86
2024/05/04 02:05:06;;;;;;;9.13;8.33;;;17.00;99.00;;;;;;5457314;26;20478;-86
2024/05/04 02:07:35;;;;;;;9.50;8.60;;;16.90;99.80;;;;;;5446722;26;20585;-88
2024/05/04 02:10:03;;;;;;;8.73;8.03;;;16.90;99.00;;;;;;5449226;26;20473;-87
2024/05/04 02:12:32;;;;;;;9.17;8.00;;;16.80;98.50;;;;;;5455715;26;20791;-86
2024/05/04 02:15:03;;;;;;;7.60;7.00;;;16.80;98.50;;;;;;5461930;26;20577;-86
2024/05/04 02:17:31;;;;;;;8.87;8.17;;;16.80;98.90;;;;;;5470896;21;20493;-86
2024/05/04 02:19:59;;;;;;;8.77;8.07;;;16.80;98.60;;;;;;5444204;26;20535;-85
2024/05/04 02:22:28;;;;;;;8.90;8.10;;;16.80;98.20;;;;;;5452912;26;20488;-85
2024/05/04 02:24:56;;;;;;;9.10;8.30;;;16.90;98.10;;;;;;5456636;26;20491;-85
2024/05/04 02:27:25;;;;;;;9.00;8.10;;;16.80;98.00;;;;;;5446132;26;20624;-85
2024/05/04 02:29:53;;;;;;;9.20;8.30;;;16.80;97.70;;;;;;5422674;26;20536;-84
2024/05/04 02:32:24;;;;;;;9.17;8.27;;;16.80;97.80;;;;;;5419621;26;20491;-84
2024/05/04 02:34:53;;;;;;;7.83;7.33;;;16.80;97.80;;;;;;5416039;26;20475;-84
2024/05/04 02:37:21;;;;;;;8.37;7.67;;;16.80;98.00;;;;;;5420305;26;20592;-85
2024/05/04 02:39:49;;;;;;;8.87;8.17;;;16.80;98.00;;;;;;5423004;26;20882;-85
2024/05/04 02:44:54;;;;;;;7.90;7.17;;;16.80;98.30;;;;;;5420761;26;20625;-86
2024/05/04 02:47:25;;;;;;;8.17;7.57;;;16.80;98.40;;;;;;5412468;26;20607;-86
2024/05/04 02:49:53;;;;;;;9.30;8.50;;;16.80;98.30;;;;;;5409728;26;20596;-86
2024/05/04 02:52:22;;;;;;;7.43;6.83;;;16.80;98.30;;;;;;5414387;26;20556;-86
2024/05/04 02:54:51;;;;;;;9.23;7.70;;;16.80;99.50;;;;;;5419747;26;20492;-86
2024/05/04 02:57:19;;;;;;;8.10;7.50;;;16.80;99.90;;;;;;5420878;26;20480;-86
2024/05/04 02:59:48;;;;;;;7.93;7.10;;;16.80;99.90;;;;;;5421548;26;20477;-86
2024/05/04 03:02:16;;;;;;;7.90;7.30;;;16.80;99.30;;;;;;5430826;26;20586;-86
2024/05/04 03:04:47;;;;;;;7.77;7.17;;;16.80;98.60;;;;;;5419924;26;20475;-86
2024/05/04 03:07:16;;;;;;;7.90;7.20;;;16.80;99.40;;;;;;5415510;26;20541;-86
2024/05/04 03:09:45;;;;;;;8.33;7.63;;;16.80;99.90;;;;;;5419780;26;20560;-86
2024/05/04 03:12:13;;;;;;;8.53;7.83;;;16.80;99.90;;;;;;5421811;26;20478;-85
2024/05/04 03:14:42;;;;;;;7.63;7.03;;;16.80;99.90;;;;;;5426318;26;20491;-86
2024/05/04 03:17:10;;;;;;;8.90;8.10;;;16.80;99.90;;;;;;5428096;26;20534;-85
2024/05/04 03:19:41;;;;;;;10.30;7.27;;;16.70;99.90;;;;;;5419559;26;22188;-86
2024/05/04 03:22:12;;;;;;;7.70;7.07;;;16.90;99.90;;;;;;5419730;26;20488;-86
2024/05/04 03:24:41;;;;;;;7.63;6.97;;;16.60;99.90;;;;;;5417506;26;20482;-85
2024/05/04 03:27:10;;;;;;;9.90;7.33;;;16.80;99.90;;;;;;5418308;26;21122;-85
2024/05/04 03:29:39;;;;;;;7.73;7.13;;;16.70;99.90;;;;;;5421532;26;20598;-85
2024/05/04 03:32:08;;;;;;;8.30;7.50;;;16.70;99.90;;;;;;5422546;26;20481;-85
2024/05/04 03:34:36;;;;;;;8.70;7.90;;;16.90;99.90;;;;;;5416526;26;20528;-84
2024/05/04 03:37:05;;;;;;;7.67;7.07;;;16.70;99.90;;;;;;5418632;26;20577;-86
2024/05/04 03:39:36;;;;;;;8.50;7.70;;;16.70;99.90;;;;;;5421125;26;21170;-86
2024/05/04 03:42:05;;;;;;;7.40;6.70;;;16.60;99.90;;;;;;5413314;26;21100;-85
2024/05/04 03:44:33;;;;;;;7.93;7.17;;;16.60;99.90;;;;;;5425286;26;20952;-86
2024/05/04 03:47:02;;;;;;;7.80;7.10;;;16.50;99.90;;;;;;5430489;26;20479;-85
2024/05/04 03:49:30;;;;;;;7.50;6.83;;;16.60;99.90;;;;;;5405239;26;20482;-86
2024/05/04 03:51:59;;;;;;;7.90;7.30;;;16.60;98.60;;;;;;5420009;26;20481;-85
2024/05/04 03:54:27;;;;;;;7.57;6.97;;;16.60;99.90;;;;;;5420801;26;20478;-86
2024/05/04 03:56:58;;;;;;;8.07;7.37;;;16.90;99.90;;;;;;5405490;26;20467;-84
2024/05/04 03:59:27;;;;;;;7.60;7.00;;;16.60;99.90;;;;;;5414991;26;20485;-84
2024/05/04 04:01:55;;;;;;;9.70;7.80;;;16.70;99.90;;;;;;5411763;26;21091;-84
2024/05/04 04:04:24;;;;;;;7.80;7.20;;;16.90;99.90;;;;;;5416161;26;20554;-84
2024/05/04 04:06:52;;;;;;;7.07;6.47;;;16.70;99.90;;;;;;5415888;26;20590;-85
2024/05/04 04:09:20;;;;;;;7.93;7.30;;;16.70;99.90;;;;;;5417332;26;21165;-83
2024/05/04 04:11:49;;;;;;;7.77;7.17;;;16.60;99.90;;;;;;5413242;26;20479;-84
2024/05/04 04:14:20;;;;;;;8.10;7.50;;;16.60;99.90;;;;;;5415875;26;20615;-85
2024/05/04 04:16:48;;;;;;;7.77;7.10;;;16.60;99.90;;;;;;5412488;26;20485;-85
2024/05/04 04:19:16;;;;;;;7.90;7.17;;;16.60;99.90;;;;;;5416430;26;20590;-84
2024/05/04 04:21:45;;;;;;;8.30;7.10;;;16.60;99.90;;;;;;5399237;26;20468;-84
2024/05/04 04:24:13;;;;;;;8.53;7.73;;;16.60;99.90;;;;;;5417014;26;20597;-84
2024/05/04 04:26:42;;;;;;;8.27;7.50;;;16.60;99.90;;;;;;5416300;26;20635;-85
2024/05/04 04:29:10;;;;;;;7.90;7.20;;;16.60;99.90;;;;;;5414328;26;20598;-84
2024/05/04 04:31:41;;;;;;;8.10;7.50;;;16.60;99.90;;;;;;5400981;26;20646;-85
2024/05/04 04:34:10;;;;;;;7.97;7.27;;;16.50;99.90;;;;;;5414901;26;20835;-84
2024/05/04 04:36:38;;;;;;;9.23;8.33;;;16.60;99.90;;;;;;5415076;26;20968;-84
2024/05/04 04:39:08;;;;;;;7.93;7.33;;;16.50;99.90;;;;;;5411172;26;20563;-84
2024/05/04 04:41:37;;;;;;;8.20;7.17;;;16.50;99.90;;;;;;5399338;26;20524;-84
2024/05/04 04:44:05;;;;;;;9.20;8.40;;;16.50;99.90;;;;;;5407090;26;20598;-85
2024/05/04 04:46:34;;;;;;;7.40;6.40;;;16.50;99.90;;;;;;5416335;26;20602;-84
2024/05/04 04:49:05;;;;;;;7.37;6.67;;;16.80;99.90;;;;;;5410007;26;20493;-84
2024/05/04 04:51:33;;;;;;;7.90;7.13;;;16.50;99.90;;;;;;5413842;26;20481;-84
2024/05/04 04:54:01;;;;;;;7.27;6.67;;;16.60;99.90;;;;;;5412889;26;20566;-84
2024/05/04 04:56:30;;;;;;;7.27;6.77;;;16.50;99.90;;;;;;5416871;26;20542;-84
2024/05/04 04:58:58;;;;;;;8.47;7.67;;;16.60;99.90;;;;;;5416486;26;21166;-84
2024/05/04 05:01:27;;;;;;;8.80;6.37;;;16.70;99.90;;;;;;5417104;26;20576;-85
2024/05/04 05:03:55;;;;;;;9.40;6.33;;;16.60;99.90;;;;;;5402715;26;20611;-83
2024/05/04 05:06:26;;;;;;;7.63;6.90;;;16.60;99.90;;;;;;5402079;26;20588;-83
2024/05/04 05:08:54;;;;;;;7.70;7.10;;;16.60;99.90;;;;;;5415586;26;20612;-83
2024/05/04 05:11:24;;;;;;;7.30;6.70;;;16.70;99.90;;;;;;5418505;26;20571;-84
2024/05/04 05:13:52;;;;;;;6.00;5.50;;;16.90;99.90;;;;;;5418233;26;20536;-84
2024/05/04 05:16:21;;;;;;;6.80;6.33;;;16.70;99.90;;;;;;5415749;26;20580;-85
2024/05/04 05:18:49;;;;;;;6.07;5.57;;;16.70;99.90;;;;;;5415598;26;20627;-85
2024/05/04 05:21:18;;;;;;;6.63;6.13;;;16.90;99.90;;;;;;5416511;26;20550;-85
2024/05/04 05:23:49;;;;;;;8.30;6.50;;;16.90;99.90;;;;;;5416789;26;20527;-85
2024/05/04 05:26:17;;;;;;;6.90;6.40;;;17.00;99.90;;;;;;5416216;26;20602;-85
2024/05/04 05:28:46;;;;;;;6.73;6.13;;;17.00;99.90;;;;;;5410956;26;20608;-85
2024/05/04 05:31:14;;;;;;;6.83;6.23;;;17.10;99.50;;;;;;5412252;26;20809;-84
2024/05/04 05:33:43;;;;;;;6.33;5.73;;;17.40;99.80;;;;;;5422919;26;20967;-84
2024/05/04 05:36:11;;;;;;;6.40;5.90;;;17.20;99.50;;;;;;5418451;26;20549;-84
2024/05/04 05:38:39;;;;;;;6.30;5.87;;;17.30;98.90;;;;;;5404579;26;20485;-84
2024/05/04 05:41:11;;;;;;;6.97;6.20;;;17.40;99.20;;;;;;5415192;26;20614;-84
2024/05/04 05:43:40;;;;;;;5.90;5.47;;;17.40;99.70;;;;;;5417203;26;20529;-84
2024/05/04 05:46:08;;;;;;;7.43;6.73;;;17.50;99.90;;;;;;5415766;26;20622;-85
2024/05/04 05:48:37;;;;;;;6.90;6.30;;;17.50;99.90;;;;;;5414735;26;20556;-86
2024/05/04 05:51:05;;;;;;;5.50;5.10;;;17.60;99.90;;;;;;5405796;26;20669;-85
2024/05/04 05:53:34;;;;;;;6.40;5.80;;;17.50;99.30;;;;;;5413679;26;20490;-84
2024/05/04 05:56:02;;;;;;;5.93;5.53;;;17.50;98.20;;;;;;5417470;26;20600;-84
2024/05/04 05:58:33;;;;;;;6.80;5.60;;;17.60;97.80;;;;;;5407582;26;20620;-85
2024/05/04 06:01:01;;;;;;;5.57;5.17;;;17.60;97.50;;;;;;5417017;26;20545;-85
2024/05/04 06:03:30;;;;;;;5.93;5.43;;;17.70;97.10;;;;;;5413387;26;20620;-86
2024/05/04 06:05:58;;;;;;;5.50;5.00;;;18.10;97.20;;;;;;5416713;26;20475;-85
2024/05/04 06:08:26;;;;;;;5.83;4.63;;;17.90;96.50;;;;;;5406446;26;20628;-83
2024/05/04 06:10:55;;;;;;;5.80;5.40;;;17.90;96.20;;;;;;5416035;26;20556;-84
2024/05/04 06:13:23;;;;;;;7.03;5.80;;;17.90;95.60;;;;;;5415169;26;20568;-84
2024/05/04 06:15:54;;;;;;;5.37;4.80;;;18.00;95.40;;;;;;5405370;26;20554;-85
2024/05/04 06:18:23;;;;;;;5.87;5.50;;;18.00;95.10;;;;;;5405328;26;20705;-85
2024/05/04 06:20:51;;;;;;;5.57;5.13;;;18.00;94.70;;;;;;5414360;26;20621;-85
2024/05/04 06:23:20;;;;;;;5.30;4.80;;;18.10;94.70;;;;;;5421807;26;20600;-85
2024/05/04 06:25:48;;;;;;;4.90;4.50;;;18.10;93.90;;;;;;5419210;26;21026;-87
2024/05/04 06:28:16;;;;;;;7.17;3.93;;;18.40;93.80;;;;;;5411085;26;23015;-84
2024/05/04 06:30:45;;;;;;;4.10;3.80;;;18.10;93.70;;;;;;5409830;26;20488;-84
2024/05/04 06:33:16;;;;;;;6.17;4.60;;;18.20;93.40;;;;;;5407363;26;20538;-86
2024/05/04 06:35:44;;;;;;;4.70;4.40;;;18.30;93.20;;;;;;5403598;26;20478;-83
2024/05/04 06:38:13;;;;;;;3.97;3.67;;;18.40;92.90;;;;;;5411962;26;20485;-84
2024/05/04 06:40:42;;;;;;;3.43;3.23;;;18.50;91.80;;;;;;5404166;26;20477;-86
2024/05/04 06:43:10;;;;;;;4.00;3.60;;;18.70;91.50;;;;;;5403438;26;20471;-82
2024/05/04 06:45:38;;;;;;;5.77;3.60;;;18.60;91.40;;;;;;5411749;26;20489;-81
2024/05/04 06:48:08;;;;;;;3.93;3.63;;;18.60;90.90;;;;;;5422399;26;20885;-89
2024/05/04 06:50:39;;;;;;;4.70;3.97;;;18.60;91.30;;;;;;5414663;26;20587;-80
2024/05/04 06:53:10;;;;;;;3.70;2.83;;;18.70;91.00;;;;;;5405733;26;20884;-79
2024/05/04 06:55:38;;;;;;;3.50;3.07;;;18.80;90.50;;;;;;5408135;26;20552;-81
2024/05/04 06:58:09;;;;;;;3.87;3.20;;;19.00;90.90;;;;;;5421824;26;20476;-80
2024/05/04 07:00:37;;;;;;;5.77;3.07;;;19.00;89.10;;;;;;5412909;26;20488;-81
2024/05/04 07:03:06;;;;;;;4.10;2.70;;;19.00;89.80;;;;;;5412415;26;21878;-80
2024/05/04 07:05:34;;;;;;;3.17;2.97;;;19.20;89.40;;;;;;5417260;26;20580;-80
2024/05/04 07:08:05;;;;;;;3.70;3.33;;;19.30;88.30;;;;;;5418602;26;20597;-81
2024/05/04 07:10:34;;;;;;;3.30;3.10;;;19.40;89.10;;;;;;5403538;26;20629;-81
2024/05/04 07:13:02;;;;;;;4.30;4.07;;;19.60;89.80;;;;;;5416491;26;20600;-80
2024/05/04 07:15:31;;;;;;;4.87;4.27;;;19.70;88.20;;;;;;5407640;26;20539;-80
2024/05/04 07:17:59;;;;;;;6.07;4.27;;;19.80;87.90;;;;;;5416927;26;20494;-80
2024/05/04 07:20:28;;;;;;;4.20;3.90;;;19.80;87.20;;;;;;5415616;26;20621;-81
2024/05/04 07:22:56;;;;;;;5.90;3.90;;;19.90;87.70;;;;;;5412958;26;20589;-80
2024/05/04 07:25:27;;;;;;;3.30;3.10;;;20.00;86.70;;;;;;5414751;26;20482;-81
2024/05/04 07:27:56;;;;;;;3.87;3.67;;;20.00;84.90;;;;;;5414924;26;21022;-81
2024/05/04 07:30:25;;;;;;;7.40;4.77;;;20.00;85.50;;;;;;5412856;26;20531;-80
2024/05/04 07:32:53;;;;;;;4.43;3.93;;;20.10;84.00;;;;;;5406096;26;20478;-81
2024/05/04 07:35:22;;;;;;;6.70;3.50;;;20.10;83.10;;;;;;5412877;26;20550;-81
2024/05/04 07:37:50;;;;;;;5.70;4.20;;;20.00;83.30;;;;;;5404728;26;20594;-80
2024/05/04 07:40:18;;;;;;;3.50;3.20;;;20.10;82.70;;;;;;5415845;26;20626;-80
2024/05/04 07:42:49;;;;;;;5.37;4.87;;;20.20;84.00;;;;;;5402001;26;20579;-80
2024/05/04 07:45:18;;;;;;;4.50;4.10;;;20.30;82.50;;;;;;5413350;26;20534;-80
2024/05/04 07:47:46;;;;;;;5.53;4.00;;;20.40;83.30;;;;;;5413113;26;20579;-81
2024/05/04 07:50:15;;;;;;;7.63;4.27;;;20.60;83.00;;;;;;5414556;26;20476;-80
2024/05/04 07:52:43;;;;;;;5.50;3.83;;;20.70;82.90;;;;;;5415590;26;20884;-80
2024/05/04 07:55:12;;;;;;;4.80;3.57;;;21.00;83.40;;;;;;5413902;26;20565;-83
2024/05/04 07:57:40;;;;;;;5.43;4.20;;;20.80;82.40;;;;;;5424274;26;20478;-83
2024/05/04 08:00:12;;;;;;;4.63;4.10;;;20.90;83.20;;;;;;5414964;26;20494;-83
2024/05/04 08:02:40;;;;;;;4.60;3.93;;;21.00;82.50;;;;;;5411929;26;20564;-84
2024/05/04 08:05:09;;;;;;;5.87;3.87;;;21.20;80.70;;;;;;5407745;26;20463;-82
2024/05/04 08:07:37;;;;;;;4.93;4.47;;;21.30;82.40;;;;;;5410980;26;20921;-83
2024/05/04 08:10:06;;;;;;;8.80;7.87;;;21.10;78.90;;;;;;5421250;26;20494;-84
2024/05/04 08:12:35;;;;;;;11.77;8.10;;;21.00;78.90;;;;;;5419187;26;20531;-84
2024/05/04 08:15:03;;;;;;;7.70;6.67;;;20.90;78.30;;;;;;5419168;26;21041;-84
2024/05/04 08:17:34;;;;;;;8.93;5.33;;;20.80;80.10;;;;;;5412329;26;20568;-84
2024/05/04 08:20:03;;;;;;;6.00;5.40;;;20.80;80.80;;;;;;5433456;21;20572;-83
2024/05/04 08:22:31;;;;;;;5.97;5.37;;;20.70;79.70;;;;;;5415189;26;20873;-83
2024/05/04 08:25:00;;;;;;;5.27;4.70;;;20.90;80.00;;;;;;5413083;26;20592;-83
2024/05/04 08:27:28;;;;;;;5.83;5.10;;;20.70;81.30;;;;;;5412350;26;20603;-85
2024/05/04 08:29:56;;;;;;;5.50;5.10;;;21.40;80.80;;;;;;5408413;26;20496;-82
2024/05/04 08:32:25;;;;;;;6.63;5.20;;;21.20;80.30;;;;;;5389349;26;20475;-83
2024/05/04 08:34:56;;;;;;;7.23;4.93;;;21.70;79.90;;;;;;5404236;26;21240;-83
2024/05/04 08:37:24;;;;;;;5.33;4.83;;;21.50;82.20;;;;;;5415533;26;21192;-83
2024/05/04 08:39:53;;;;;;;7.37;5.23;;;21.70;86.70;;;;;;5388314;26;20559;-83
2024/05/04 08:42:21;;;;;;;6.07;5.30;;;21.80;81.70;;;;;;5389587;26;20538;-84
2024/05/04 08:44:51;;;;;;;6.17;5.57;;;22.20;81.80;;;;;;5398483;26;20645;-84
2024/05/04 08:47:20;;;;;;;6.83;5.23;;;22.60;78.50;;;;;;5411171;26;20595;-84
2024/05/04 08:49:52;;;;;;;6.60;5.40;;;22.70;77.30;;;;;;5397393;26;21042;-84
2024/05/04 08:52:25;;;;;;;8.10;5.27;;;22.90;74.00;;;;;;5400564;26;20602;-84
2024/05/04 08:54:54;;;;;;;5.63;5.13;;;23.20;75.10;;;;;;5409488;26;20554;-85
2024/05/04 08:57:23;;;;;;;7.53;5.70;;;23.50;71.10;;;;;;5403076;26;20602;-84
2024/05/04 08:59:54;;;;;;;7.50;5.70;;;24.00;63.20;;;;;;5402234;26;20551;-84
2024/05/04 09:02:23;;;;;;;6.17;5.27;;;24.50;62.50;;;;;;5413975;26;20633;-84
2024/05/04 09:04:52;;;;;;;5.73;5.23;;;25.20;63.70;;;;;;5421920;26;20471;-84
2024/05/04 09:07:23;;;;;;;6.27;5.10;;;26.20;61.20;;;;;;5419512;26;20581;-84
2024/05/04 09:09:51;;;;;;;6.03;5.00;;;27.00;58.10;;;;;;5390777;26;20490;-83
2024/05/04 09:12:31;;;;;;;8.43;5.40;;;27.90;59.90;;;;;;5413682;26;20955;-84
2024/05/04 09:14:59;;;;;;;6.70;5.03;;;28.60;59.60;;;;;;5420681;26;20521;-82
2024/05/04 09:17:28;;;;;;;6.27;5.20;;;28.90;58.40;;;;;;5406283;26;20482;-84
2024/05/04 09:19:56;;;;;;;5.73;5.03;;;29.10;58.60;;;;;;5408392;26;20606;-82
2024/05/04 09:22:27;;;;;;;5.90;4.90;;;29.10;58.10;;;;;;5413845;26;20539;-82
2024/05/04 09:24:58;;;;;;;7.37;5.47;;;29.40;56.20;;;;;;5407285;26;20486;-83
2024/05/04 09:27:26;;;;;;;8.13;6.20;;;29.50;56.00;;;;;;5415249;26;20534;-84
2024/05/04 09:29:55;;;;;;;7.30;5.33;;;29.40;55.10;;;;;;5404880;26;21105;-82
2024/05/04 09:32:24;;;;;;;8.50;5.33;;;29.10;55.30;;;;;;5409149;26;20474;-82
2024/05/04 09:34:58;;;;;;;5.50;5.00;;;29.00;54.80;;;;;;5414215;26;20463;-83
2024/05/04 09:37:37;;;;;;;6.50;4.80;;;29.00;54.70;;;;;;5415448;26;20616;-83
2024/05/04 09:40:07;;;;;;;7.27;5.10;;;29.00;54.50;;;;;;5412961;26;20475;-82
2024/05/04 09:42:37;;;;;;;4.90;4.23;;;29.00;52.90;;;;;;5415732;26;20529;-82
2024/05/04 09:45:08;;;;;;;5.60;4.90;;;29.20;55.50;;;;;;5411931;26;20593;-82
2024/05/04 09:47:39;;;;;;;6.00;5.27;;;29.40;55.40;;;;;;5415480;26;20539;-82
2024/05/04 09:50:08;;;;;;;8.70;5.13;;;29.60;52.50;;;;;;5415914;26;20482;-83
2024/05/04 09:52:39;;;;;;;9.13;5.50;;;29.80;57.70;;;;;;5413157;26;20626;-83
2024/05/04 09:55:07;;;;;;;6.67;5.83;;;29.90;56.20;;;;;;5410848;26;20601;-83
2024/05/04 09:57:40;;;;;;;10.27;6.50;;;29.90;56.10;;;;;;5417846;26;21168;-83
2024/05/04 10:00:09;;;;;;;7.93;6.60;;;29.80;58.00;;;;;;5416522;26;20538;-84
2024/05/04 10:02:42;;;;;;;7.03;6.30;;;29.80;58.00;;;;;;5413504;26;20530;-84
2024/05/04 10:05:13;;;;;;;11.67;6.83;;;29.50;59.10;;;;;;5410864;26;20494;-83
2024/05/04 10:07:46;;;;;;;7.40;6.47;;;29.00;58.20;;;;;;5404873;26;20630;-84
2024/05/04 10:10:15;;;;;;;7.13;5.93;;;28.40;59.00;;;;;;5404941;26;20554;-83
2024/05/04 10:12:48;;;;;;;6.63;5.67;;;27.80;58.90;;;;;;5411687;26;21169;-85
2024/05/04 10:15:17;;;;;;;6.40;5.80;;;27.30;59.50;;;;;;5395916;26;20472;-85
2024/05/04 10:17:47;;;;;;;7.47;6.50;;;26.80;62.10;;;;;;5406881;26;20471;-83
2024/05/04 10:20:16;;;;;;;7.37;5.63;;;26.30;60.50;;;;;;5406506;26;20508;-83
2024/05/04 10:22:58;;;;;;;6.13;5.53;;;26.10;58.80;;;;;;5410487;26;20466;-86
2024/05/04 10:25:28;;;;;;;11.87;6.30;;;25.70;58.70;;;;;;5413892;26;20603;-85
2024/05/04 10:27:56;;;;;;;6.40;5.80;;;25.40;58.10;;;;;;5417438;26;20463;-85
2024/05/04 10:30:24;;;;;;;8.13;7.33;;;25.20;57.50;;;;;;5417084;26;20549;-85
2024/05/04 10:32:53;;;;;;;9.33;6.57;;;25.00;57.50;;;;;;5414152;26;21057;-85
2024/05/04 10:35:22;;;;;;;7.43;6.50;;;24.70;56.30;;;;;;5410101;26;20474;-84
2024/05/04 10:37:53;;;;;;;7.90;7.10;;;24.50;56.40;;;;;;5417140;26;20772;-84
2024/05/04 10:40:22;;;;;;;8.47;7.00;;;24.10;57.60;;;;;;5417250;26;20599;-85
2024/05/04 10:42:50;;;;;;;6.17;5.63;;;23.90;58.00;;;;;;5417463;26;20529;-85
2024/05/04 10:45:20;;;;;;;8.83;6.10;;;23.90;57.80;;;;;;5417531;26;20616;-85
2024/05/04 10:47:49;;;;;;;6.20;5.60;;;23.70;59.70;;;;;;5418055;26;20459;-85
2024/05/04 10:50:17;;;;;;;8.63;7.73;;;23.60;61.40;;;;;;5417129;26;21096;-85
2024/05/04 10:52:47;;;;;;;8.13;7.00;;;23.60;64.30;;;;;;5414221;26;20553;-85
2024/05/04 10:55:18;;;;;;;6.50;5.90;;;23.50;64.50;;;;;;5416299;26;20467;-84
2024/05/04 10:57:47;;;;;;;8.43;7.53;;;23.70;66.30;;;;;;5414606;26;20586;-84
2024/05/04 11:00:20;;;;;;;7.33;5.47;;;23.30;65.60;;;;;;5411631;26;20547;-84
2024/05/04 11:02:49;;;;;;;8.43;7.43;;;23.20;68.20;;;;;;5417023;26;20800;-85
2024/05/04 11:05:18;;;;;;;6.60;5.77;;;23.20;69.80;;;;;;5419463;26;20595;-84
2024/05/04 11:07:46;;;;;;;6.73;5.57;;;23.20;69.20;;;;;;5425508;26;20569;-84
2024/05/04 11:10:17;;;;;;;6.10;5.47;;;23.20;70.00;;;;;;5414032;26;20491;-84
2024/05/04 11:12:47;;;;;;;5.70;5.10;;;23.40;70.00;;;;;;5415001;26;20459;-83
2024/05/04 11:15:26;;;;;;;6.37;5.27;;;23.20;74.10;;;;;;5402230;26;20472;-84
2024/05/04 11:18:04;;;;;;;5.53;5.07;;;23.20;74.10;;;;;;5408990;26;20480;-84
2024/05/04 11:20:33;;;;;;;9.23;5.17;;;23.00;72.90;;;;;;5412271;26;20546;-86
2024/05/04 11:23:01;;;;;;;9.53;5.30;;;22.80;74.00;;;;;;5418583;26;20593;-84
2024/05/04 11:25:33;;;;;;;6.80;6.17;;;22.60;77.00;;;;;;5416067;26;20550;-85
2024/05/04 11:28:01;;;;;;;7.40;6.03;;;22.60;80.30;;;;;;5418270;26;20475;-85
2024/05/04 11:30:34;;;;;;;7.27;5.40;;;22.50;83.80;;;;;;5408847;26;20539;-84
2024/05/04 11:33:02;;;;;;;5.50;5.10;;;22.50;83.70;;;;;;5417459;26;20534;-85
2024/05/04 11:35:31;;;;;;;11.13;8.97;;;22.50;70.70;;;;;;5414031;26;20543;-85
2024/05/04 11:37:59;;;;;;;6.53;5.93;;;22.40;81.50;;;;;;5415027;26;20883;-83
2024/05/04 11:40:27;;;;;;;5.80;5.20;;;22.30;70.90;;;;;;5414073;26;20792;-82
2024/05/04 11:43:00;;;;;;;6.77;5.40;;;22.20;81.70;;;;;;5413554;26;21089;-84
2024/05/04 11:45:32;;;;;;;7.60;5.63;;;21.90;67.50;;;;;;5414365;26;20479;-85
2024/05/04 11:48:01;;;;;;;5.97;5.37;;;21.90;68.30;;;;;;5414952;26;20526;-84
2024/05/04 11:50:29;;;;;;;5.53;5.00;;;21.80;69.50;;;;;;5413985;26;21098;-85
2024/05/04 11:52:57;;;;;;;7.53;6.73;;;21.80;70.90;;;;;;5413775;26;20969;-82
2024/05/04 11:55:26;;;;;;;7.23;6.13;;;22.00;71.70;;;;;;5418020;26;20624;-84
2024/05/04 11:57:54;;;;;;;6.10;5.23;;;21.70;75.30;;;;;;5419889;26;20459;-84
2024/05/04 12:00:25;;;;;;;7.17;5.27;;;21.60;73.20;;;;;;5417624;26;20471;-84
2024/05/04 12:02:54;;;;;;;9.57;8.67;;;21.60;73.90;;;;;;5403145;26;21043;-80
2024/05/04 12:05:22;;;;;;;6.03;5.50;;;21.60;74.10;;;;;;5419074;26;20530;-82
2024/05/04 12:07:51;;;;;;;6.10;5.50;;;21.60;71.80;;;;;;5401530;26;20538;-83
2024/05/04 12:10:19;;;;;;;9.00;7.50;;;21.50;71.00;;;;;;5408901;26;20604;-84
2024/05/04 12:12:47;;;;;;;8.43;7.63;;;21.70;72.80;;;;;;5416421;26;20549;-84
2024/05/04 12:15:16;;;;;;;9.60;8.50;;;21.40;73.40;;;;;;5413143;26;20562;-85
2024/05/04 12:17:47;;;;;;;13.57;8.37;;;21.30;74.80;;;;;;5417208;26;20569;-84
2024/05/04 12:20:15;;;;;;;6.40;5.37;;;21.20;73.00;;;;;;5424186;26;20506;-84
2024/05/04 12:22:44;;;;;;;7.87;6.80;;;21.30;75.60;;;;;;5424502;26;20904;-84
2024/05/04 12:25:12;;;;;;;5.70;5.20;;;21.00;75.40;;;;;;5420557;26;20601;-84
2024/05/04 12:27:41;;;;;;;6.20;5.30;;;21.30;75.50;;;;;;5421984;26;20583;-84
2024/05/04 12:30:10;;;;;;;6.60;5.00;;;21.00;72.60;;;;;;5406080;26;20550;-84
2024/05/04 12:32:40;;;;;;;10.60;9.53;;;21.10;74.80;;;;;;5420063;26;21057;-84
2024/05/04 12:35:11;;;;;;;7.70;7.00;;;21.10;73.50;;;;;;5421969;26;20467;-84
2024/05/04 12:37:40;;;;;;;11.27;5.63;;;21.40;75.70;;;;;;5420505;26;20467;-85
2024/05/04 12:40:09;;;;;;;6.00;5.50;;;21.10;72.20;;;;;;5420586;26;20625;-84
2024/05/04 12:42:38;;;;;;;4.47;3.63;;;21.10;71.30;;;;;;5419614;26;20467;-84
2024/05/04 12:45:06;;;;;;;4.53;4.23;;;21.00;71.40;;;;;;5423472;26;20546;-84
2024/05/04 12:47:35;;;;;;;5.10;4.57;;;21.00;70.40;;;;;;5422241;26;20544;-83
2024/05/04 12:50:04;;;;;;;5.50;3.80;;;21.00;70.20;;;;;;5422056;26;20713;-84
2024/05/04 12:52:35;;;;;;;4.80;4.30;;;20.90;67.70;;;;;;5427030;26;20545;-84
2024/05/04 12:55:03;;;;;;;9.07;7.10;;;20.90;70.40;;;;;;5420401;26;20597;-85
2024/05/04 12:57:32;;;;;;;28.13;23.27;;;20.90;68.00;;;;;;5426759;26;20482;-86